Time;durP1;ratioP1;P1;durP2;ratioP2;P2;SDS_P1;SDS_P2;PMS_P1;PMS_P2;Temp;Humidity;BMP_temperature;BMP_pressure;BME280_temperature;BME280_humidity;BME280_pressure;Samples;Min_cycle;Max_cycle;Signal;HPM_P1;HPM_P2
2024/02/09 00:01:36;;;;;;;;;;;;;;;0.72;96.84;98452.83;136965;1274;22374;-73
2024/02/09 00:04:40;;;;;;;;;;;;;;;0.74;96.89;98454.71;137108;1277;23137;-75
2024/02/09 00:07:48;;;;;;;;;;;;;;;0.74;96.92;98447.05;137167;1276;22378;-75
2024/02/09 00:10:49;;;;;;;;;;;;;;;0.74;96.91;98449.72;137154;1276;23145;-74
2024/02/09 00:13:50;;;;;;;;;;;;;;;0.75;97.01;98438.87;137176;1276;23061;-77
2024/02/09 00:16:50;;;;;;;;;;;;;;;0.76;97.13;98431.92;137159;1277;23042;-74
2024/02/09 00:19:51;;;;;;;;;;;;;;;0.77;97.04;98425.91;137116;1276;23198;-73
2024/02/09 00:22:52;;;;;;;;;;;;;;;0.80;97.11;98426.32;136965;1276;23268;-74
2024/02/09 00:25:55;;;;;;;;;;;;;;;0.82;97.09;98422.69;137144;1277;22437;-73
2024/02/09 00:28:57;;;;;;;;;;;;;;;0.80;97.05;98418.69;137160;1277;22389;-76
2024/02/09 00:31:58;;;;;;;;;;;;;;;0.81;97.26;98413.86;137158;1277;22366;-75
2024/02/09 00:34:58;;;;;;;;;;;;;;;0.80;97.29;98410.52;137124;1276;23158;-73
2024/02/09 00:38:00;;;;;;;;;;;;;;;0.79;97.44;98409.35;136946;1277;23249;-74
2024/02/09 00:41:04;;;;;;;;;;;;;;;0.77;97.64;98407.47;137123;1276;22380;-74
2024/02/09 00:44:05;;;;;;;;;;;;;;;0.76;97.73;98409.25;137137;1277;23098;-73
2024/02/09 00:47:07;;;;;;;;;;;;;;;0.76;97.67;98409.51;137118;1277;23036;-74
2024/02/09 00:50:10;;;;;;;;;;;;;;;0.77;97.71;98408.05;137148;1277;22365;-74
2024/02/09 00:53:10;;;;;;;;;;;;;;;0.77;97.81;98406.65;137171;1277;22398;-74
2024/02/09 00:56:14;;;;;;;;;;;;;;;0.77;97.95;98410.11;137148;1276;23144;-74
2024/02/09 00:59:17;;;;;;;;;;;;;;;0.76;97.96;98408.46;137139;1276;22399;-74
2024/02/09 01:02:18;;;;;;;;;;;;;;;0.76;98.15;98406.68;137097;1276;23304;-73
2024/02/09 01:05:19;;;;;;;;;;;;;;;0.78;98.10;98411.38;137130;1276;23463;-73
2024/02/09 01:08:20;;;;;;;;;;;;;;;0.78;98.20;98406.16;137153;1276;22400;-74
2024/02/09 01:11:21;;;;;;;;;;;;;;;0.80;98.29;98400.60;137165;1276;22360;-75
2024/02/09 02:45:35;;;;;;;;;;;;;;;0.99;100.00;98323.70;137102;1276;22389;-73
2024/02/09 03:05:14;;;;;;;;;;;;;;;0.97;100.00;98296.78;137139;1276;22341;-74
2024/02/09 03:08:18;;;;;;;;;;;;;;;0.95;100.00;98292.74;137155;1276;22437;-74
2024/02/09 03:11:21;;;;;;;;;;;;;;;0.94;100.00;98295.64;137055;1276;22554;-73
2024/02/09 03:14:23;;;;;;;;;;;;;;;0.94;100.00;98291.86;137163;1276;22850;-74
2024/02/09 03:17:26;;;;;;;;;;;;;;;0.94;100.00;98292.52;137155;1276;22375;-75
2024/02/09 03:20:26;;;;;;;;;;;;;;;0.96;100.00;98291.30;137122;1276;22378;-73
2024/02/09 03:23:27;;;;;;;;;;;;;;;0.97;100.00;98290.89;137158;1276;22417;-73
2024/02/09 03:26:30;;;;;;;;;;;;;;;0.97;100.00;98287.70;137185;1276;23277;-74
2024/02/09 03:29:30;;;;;;;;;;;;;;;0.98;100.00;98283.30;137155;1276;22452;-73
2024/02/09 03:32:38;;;;;;;;;;;;;;;0.98;100.00;98280.45;137153;1276;22621;-73
2024/02/09 03:35:38;;;;;;;;;;;;;;;0.98;100.00;98283.92;137146;1276;23254;-73
2024/02/09 03:38:39;;;;;;;;;;;;;;;0.97;100.00;98276.21;137212;1276;22380;-73
2024/02/09 03:41:40;;;;;;;;;;;;;;;0.96;100.00;98276.46;137157;1276;22382;-73
2024/02/09 03:44:55;;;;;;;;;;;;;;;0.95;100.00;98277.75;137187;1273;22381;-74
2024/02/09 03:48:00;;;;;;;;;;;;;;;0.94;100.00;98275.60;137188;1265;22277;-75
2024/02/09 03:51:02;;;;;;;;;;;;;;;0.97;100.00;98276.20;137174;1276;22421;-73
2024/02/09 03:54:03;;;;;;;;;;;;;;;0.99;100.00;98269.08;137180;1277;22405;-74
2024/02/09 03:57:03;;;;;;;;;;;;;;;0.99;100.00;98264.21;137185;1277;22455;-73
2024/02/09 04:00:04;;;;;;;;;;;;;;;0.99;100.00;98264.19;137208;1276;22402;-74
2024/02/09 04:03:13;;;;;;;;;;;;;;;0.98;100.00;98264.23;137149;1276;22981;-74
2024/02/09 04:06:22;;;;;;;;;;;;;;;0.98;100.00;98257.64;137147;1277;22419;-74
2024/02/09 04:09:25;;;;;;;;;;;;;;;0.98;100.00;98255.23;137141;1276;22310;-73
2024/02/09 04:12:43;;;;;;;;;;;;;;;;;;;;;
2024/02/09 04:15:52;;;;;;;;;;;;;;;0.99;100.00;98257.09;137000;1277;23043;-73
2024/02/09 04:18:53;;;;;;;;;;;;;;;0.99;100.00;98258.46;137184;1273;22435;-73
2024/02/09 04:21:53;;;;;;;;;;;;;;;0.98;100.00;98258.13;137174;1276;22376;-74
2024/02/09 04:24:54;;;;;;;;;;;;;;;0.99;100.00;98256.48;137118;1276;22382;-74
2024/02/09 04:27:55;;;;;;;;;;;;;;;1.01;100.00;98250.77;137171;1276;22459;-74
2024/02/09 04:30:58;;;;;;;;;;;;;;;1.02;100.00;98257.09;137157;1276;22379;-74
2024/02/09 04:33:59;;;;;;;;;;;;;;;1.03;100.00;98253.86;137153;1276;23056;-75
2024/02/09 04:37:08;;;;;;;;;;;;;;;1.04;100.00;98247.84;137144;1276;22408;-75
2024/02/09 04:40:12;;;;;;;;;;;;;;;1.03;100.00;98246.84;137165;1277;22274;-73
2024/02/09 04:43:12;;;;;;;;;;;;;;;1.03;100.00;98246.22;137156;1276;22414;-74
2024/02/09 04:46:22;;;;;;;;;;;;;;;1.05;100.00;98239.19;137191;1276;22370;-74
2024/02/09 04:49:24;;;;;;;;;;;;;;;1.02;100.00;98234.56;136993;1276;23360;-74
2024/02/09 04:52:27;;;;;;;;;;;;;;;1.02;100.00;98227.54;137117;1276;22415;-75
2024/02/09 04:55:27;;;;;;;;;;;;;;;1.01;100.00;98219.92;136959;1276;22401;-73
2024/02/09 04:58:31;;;;;;;;;;;;;;;1.01;100.00;98221.27;137209;1276;22394;-74
2024/02/09 05:01:38;;;;;;;;;;;;;;;1.03;100.00;98217.31;137156;1276;22284;-74
2024/02/09 05:04:38;;;;;;;;;;;;;;;1.01;100.00;98215.35;137156;1273;22409;-74
2024/02/09 05:07:41;;;;;;;;;;;;;;;1.01;100.00;98213.67;137163;1276;22416;-74
2024/02/09 05:10:42;;;;;;;;;;;;;;;0.99;100.00;98212.66;137164;1265;22386;-73
2024/02/09 05:13:53;;;;;;;;;;;;;;;0.98;100.00;98209.06;137149;1276;22398;-73
2024/02/09 05:16:54;;;;;;;;;;;;;;;0.98;100.00;98208.90;137102;1276;22274;-78
2024/02/09 05:19:58;;;;;;;;;;;;;;;1.00;100.00;98206.23;137160;1276;22436;-78
2024/02/09 05:23:01;;;;;;;;;;;;;;;0.99;100.00;98198.66;137096;1276;22396;-75
2024/02/09 05:26:01;;;;;;;;;;;;;;;0.99;100.00;98202.55;137175;1276;22410;-74
2024/02/09 05:29:02;;;;;;;;;;;;;;;0.99;100.00;98205.55;137143;1276;22397;-79
2024/02/09 05:32:03;;;;;;;;;;;;;;;0.99;100.00;98199.96;137172;1276;22401;-75
2024/02/09 05:35:06;;;;;;;;;;;;;;;0.99;100.00;98205.48;137138;1276;22406;-76
2024/02/09 05:38:06;;;;;;;;;;;;;;;0.98;100.00;98208.92;137205;1276;22382;-75
2024/02/09 05:41:07;;;;;;;;;;;;;;;0.96;100.00;98205.92;137232;1276;22403;-74
2024/02/09 05:44:08;;;;;;;;;;;;;;;0.97;100.00;98212.26;137091;1276;22445;-76
2024/02/09 05:47:13;;;;;;;;;;;;;;;0.98;100.00;98212.58;137131;1276;23112;-78
2024/02/09 05:50:14;;;;;;;;;;;;;;;0.98;100.00;98212.95;137172;1276;22375;-76
2024/02/09 05:53:17;;;;;;;;;;;;;;;0.99;100.00;98214.04;137175;1276;22398;-75
2024/02/09 05:56:22;;;;;;;;;;;;;;;0.99;100.00;98216.98;137165;1276;23191;-75
2024/02/09 05:59:26;;;;;;;;;;;;;;;1.00;100.00;98214.40;137179;1272;22374;-76
2024/02/09 06:02:28;;;;;;;;;;;;;;;1.00;100.00;98218.41;137185;1276;23278;-77
2024/02/09 06:09:17;;;;;;;;;;;;;;;1.05;100.00;98217.60;136750;1278;22448;-75
2024/02/09 06:12:24;;;;;;;;;;;;;;;1.06;100.00;98214.04;137105;1276;22282;-74
2024/02/09 06:15:24;;;;;;;;;;;;;;;1.07;100.00;98209.52;137120;1276;22476;-75
2024/02/09 06:18:27;;;;;;;;;;;;;;;1.09;100.00;98207.77;137187;1276;23066;-75
2024/02/09 06:21:32;;;;;;;;;;;;;;;1.11;100.00;98206.51;137138;1276;23084;-74
2024/02/09 06:24:35;;;;;;;;;;;;;;;1.11;100.00;98209.08;137153;1276;23042;-75
2024/02/09 06:27:36;;;;;;;;;;;;;;;1.11;100.00;98203.90;137146;1276;23556;-74
2024/02/09 06:30:37;;;;;;;;;;;;;;;1.10;100.00;98206.80;137123;1276;22406;-74
2024/02/09 06:33:39;;;;;;;;;;;;;;;1.10;100.00;98207.14;137141;1276;22373;-74
2024/02/09 06:36:40;;;;;;;;;;;;;;;1.10;100.00;98206.24;137139;1274;22355;-74
2024/02/09 06:39:40;;;;;;;;;;;;;;;1.11;100.00;98209.84;137124;1276;22366;-75
2024/02/09 06:42:44;;;;;;;;;;;;;;;1.11;100.00;98216.85;137113;1276;22381;-73
2024/02/09 06:45:47;;;;;;;;;;;;;;;1.12;100.00;98222.25;137050;1273;23207;-79
2024/02/09 06:48:48;;;;;;;;;;;;;;;1.16;100.00;98216.36;137128;1276;23037;-75
2024/02/09 06:51:52;;;;;;;;;;;;;;;1.18;100.00;98211.91;137149;1276;23098;-75
2024/02/09 06:54:54;;;;;;;;;;;;;;;1.19;100.00;98206.59;137139;1276;22411;-76
2024/02/09 06:57:58;;;;;;;;;;;;;;;1.22;100.00;98204.77;137120;1276;23130;-76
2024/02/09 07:00:59;;;;;;;;;;;;;;;1.25;100.00;98201.24;137131;1276;23230;-75
2024/02/09 07:04:00;;;;;;;;;;;;;;;1.26;100.00;98201.24;137144;1276;22412;-77
2024/02/09 07:07:05;;;;;;;;;;;;;;;1.27;100.00;98194.36;137161;1276;23623;-75
2024/02/09 07:10:06;;;;;;;;;;;;;;;1.29;100.00;98191.98;137107;1276;22325;-76
2024/02/09 07:13:09;;;;;;;;;;;;;;;1.31;100.00;98194.05;137167;1276;23110;-75
2024/02/09 07:16:10;;;;;;;;;;;;;;;1.32;100.00;98189.77;137193;1276;23127;-75
2024/02/09 07:19:13;;;;;;;;;;;;;;;1.34;100.00;98191.13;137115;1276;22459;-76
2024/02/09 07:22:14;;;;;;;;;;;;;;;1.38;100.00;98191.45;137102;1276;22376;-76
2024/02/09 07:25:14;;;;;;;;;;;;;;;1.42;100.00;98195.63;137118;1276;22368;-75
2024/02/09 07:28:15;;;;;;;;;;;;;;;1.45;100.00;98189.03;137088;1276;22365;-75
2024/02/09 07:31:21;;;;;;;;;;;;;;;1.48;100.00;98185.07;137088;1276;22401;-76
2024/02/09 07:34:22;;;;;;;;;;;;;;;1.52;100.00;98181.87;137160;1276;22391;-75
2024/02/09 07:37:22;;;;;;;;;;;;;;;1.55;100.00;98177.66;137133;1270;22372;-75
2024/02/09 07:40:26;;;;;;;;;;;;;;;1.57;100.00;98177.11;137105;1276;22401;-74
2024/02/09 07:43:27;;;;;;;;;;;;;;;1.61;100.00;98172.61;137131;1276;23149;-75
2024/02/09 07:46:28;;;;;;;;;;;;;;;1.64;100.00;98175.95;137087;1266;22412;-75
2024/02/09 07:49:31;;;;;;;;;;;;;;;1.68;100.00;98178.10;137130;1276;22539;-74
2024/02/09 07:52:38;;;;;;;;;;;;;;;1.69;100.00;98167.96;137128;1276;22382;-74
2024/02/09 07:55:38;;;;;;;;;;;;;;;1.70;100.00;98158.39;137122;1271;22344;-75
2024/02/09 07:58:42;;;;;;;;;;;;;;;1.71;100.00;98151.52;137163;1276;22402;-75
2024/02/09 08:01:48;;;;;;;;;;;;;;;1.76;100.00;98157.57;137127;1276;22398;-76
2024/02/09 08:04:49;;;;;;;;;;;;;;;1.79;100.00;98153.65;137125;1276;22280;-78
2024/02/09 08:07:50;;;;;;;;;;;;;;;1.83;100.00;98149.79;137096;1276;22408;-74
2024/02/09 08:10:54;;;;;;;;;;;;;;;1.87;100.00;98151.10;137147;1276;23094;-74
2024/02/09 08:13:57;;;;;;;;;;;;;;;1.90;100.00;98151.13;137108;1274;22395;-75
2024/02/09 08:17:01;;;;;;;;;;;;;;;1.94;100.00;98151.70;137146;1276;22363;-75
2024/02/09 08:20:03;;;;;;;;;;;;;;;1.98;100.00;98146.73;137105;1276;22592;-74
2024/02/09 08:23:04;;;;;;;;;;;;;;;2.00;100.00;98142.54;137011;1276;22404;-73
2024/02/09 08:26:10;;;;;;;;;;;;;;;2.00;100.00;98136.63;137081;1276;22416;-75
2024/02/09 08:29:10;;;;;;;;;;;;;;;2.01;100.00;98135.39;137112;1269;22298;-74
2024/02/09 08:32:17;;;;;;;;;;;;;;;2.01;100.00;98132.01;137099;1273;22369;-75
2024/02/09 08:35:19;;;;;;;;;;;;;;;2.00;100.00;98130.37;137122;1276;22267;-74
2024/02/09 08:38:23;;;;;;;;;;;;;;;2.00;100.00;98133.81;137066;1276;22410;-73
2024/02/09 08:41:24;;;;;;;;;;;;;;;2.02;100.00;98129.64;137116;1276;22363;-73
2024/02/09 08:44:29;;;;;;;;;;;;;;;2.05;100.00;98123.24;137120;1276;23064;-74
2024/02/09 08:47:33;;;;;;;;;;;;;;;2.09;100.00;98124.72;137112;1276;22361;-74
2024/02/09 08:50:34;;;;;;;;;;;;;;;2.13;100.00;98124.92;137131;1276;22358;-74
2024/02/09 08:53:35;;;;;;;;;;;;;;;2.18;100.00;98122.30;137128;1276;23483;-74
2024/02/09 08:56:39;;;;;;;;;;;;;;;2.22;100.00;98117.90;137089;1274;22395;-74
2024/02/09 08:59:42;;;;;;;;;;;;;;;2.25;100.00;98117.11;137125;1276;22413;-74
2024/02/09 09:02:42;;;;;;;;;;;;;;;2.29;100.00;98117.19;137123;1276;23223;-74
2024/02/09 09:05:47;;;;;;;;;;;;;;;2.32;100.00;98113.69;137037;1276;22397;-73
2024/02/09 09:08:52;;;;;;;;;;;;;;;2.39;100.00;98110.04;137080;1276;22316;-73
2024/02/09 09:11:56;;;;;;;;;;;;;;;2.43;100.00;98111.83;137068;1276;22363;-74
2024/02/09 09:14:58;;;;;;;;;;;;;;;2.48;100.00;98109.05;137086;1276;22376;-73
2024/02/09 09:17:59;;;;;;;;;;;;;;;2.57;100.00;98108.58;137107;1276;22404;-73
2024/02/09 09:21:02;;;;;;;;;;;;;;;2.65;100.00;98111.91;137089;1276;22417;-74
2024/02/09 09:24:07;;;;;;;;;;;;;;;2.73;100.00;98115.11;137096;1276;22403;-74
2024/02/09 09:27:11;;;;;;;;;;;;;;;2.83;100.00;98108.26;137062;1276;23009;-74
2024/02/09 09:30:19;;;;;;;;;;;;;;;2.93;100.00;98109.80;137058;1276;23170;-75
2024/02/09 09:33:26;;;;;;;;;;;;;;;3.01;100.00;98105.73;136878;1276;296716;-75
2024/02/09 09:37:12;;;;;;;;;;;;;;;3.08;100.00;98103.22;137115;1273;22362;-74
2024/02/09 09:40:13;;;;;;;;;;;;;;;3.14;100.00;98100.31;137022;1276;22525;-75
2024/02/09 09:46:58;;;;;;;;;;;;;;;3.26;100.00;98096.25;137008;1276;22440;-75
2024/02/09 09:50:01;;;;;;;;;;;;;;;3.33;100.00;98093.31;137106;1276;22452;-74
2024/02/09 09:53:06;;;;;;;;;;;;;;;3.50;100.00;98089.14;137067;1276;22456;-74
2024/02/09 09:56:12;;;;;;;;;;;;;;;3.62;100.00;98089.64;137073;1276;22331;-75
2024/02/09 09:59:21;;;;;;;;;;;;;;;3.64;100.00;98090.98;136984;1276;22396;-74
2024/02/09 10:02:39;;;;;;;;;;;;;;;3.72;100.00;98091.13;136882;1276;22340;-75
2024/02/09 10:06:01;;;;;;;;;;;;;;;3.80;100.00;98090.00;137083;1273;22441;-75
2024/02/09 10:09:08;;;;;;;;;;;;;;;3.89;100.00;98082.66;137080;1276;23252;-74
2024/02/09 10:12:09;;;;;;;;;;;;;;;4.01;100.00;98081.88;137088;1276;22294;-74
2024/02/09 10:15:16;;;;;;;;;;;;;;;4.12;100.00;98075.71;137088;1275;22392;-74
2024/02/09 10:18:19;;;;;;;;;;;;;;;4.23;100.00;98070.82;137052;1276;22356;-75
2024/02/09 10:21:22;;;;;;;;;;;;;;;4.36;100.00;98068.05;137092;1276;22463;-75
2024/02/09 10:24:23;;;;;;;;;;;;;;;4.44;100.00;98058.39;137057;1276;22421;-75
2024/02/09 10:27:26;;;;;;;;;;;;;;;4.50;100.00;98056.08;137091;1276;22409;-74
2024/02/09 10:30:34;;;;;;;;;;;;;;;4.59;100.00;98053.86;136968;1273;23048;-75
2024/02/09 10:33:36;;;;;;;;;;;;;;;4.63;100.00;98050.23;137124;1276;22279;-74
2024/02/09 10:36:43;;;;;;;;;;;;;;;4.67;100.00;98050.63;137076;1276;23327;-74
2024/02/09 10:39:47;;;;;;;;;;;;;;;4.70;100.00;98045.06;137086;1276;22287;-75
2024/02/09 10:43:41;;;;;;;;;;;;;;;4.72;100.00;98045.34;137069;1276;22405;-74
2024/02/09 10:46:56;;;;;;;;;;;;;;;4.78;100.00;98041.86;137012;1276;22580;-75
2024/02/09 10:50:04;;;;;;;;;;;;;;;4.86;100.00;98035.39;137066;1276;23194;-76
2024/02/09 10:53:10;;;;;;;;;;;;;;;4.95;100.00;98025.81;137060;1276;22300;-74
2024/02/09 10:56:12;;;;;;;;;;;;;;;5.02;100.00;98018.70;137120;1276;22266;-74
2024/02/09 10:59:18;;;;;;;;;;;;;;;5.10;100.00;98022.58;137089;1276;22395;-73
2024/02/09 11:02:22;;;;;;;;;;;;;;;5.20;100.00;98019.33;137106;1276;22292;-74
2024/02/09 11:05:24;;;;;;;;;;;;;;;5.25;100.00;98012.52;137053;1276;23621;-73
2024/02/09 11:08:29;;;;;;;;;;;;;;;5.36;100.00;98007.95;137074;1276;22403;-74
2024/02/09 11:11:33;;;;;;;;;;;;;;;5.43;100.00;98006.58;137104;1276;23129;-74
2024/02/09 11:14:35;;;;;;;;;;;;;;;5.52;100.00;98008.34;137118;1276;22467;-75
2024/02/09 11:17:50;;;;;;;;;;;;;;;5.62;100.00;98009.86;137095;1276;23106;-73
2024/02/09 11:24:44;;;;;;;;;;;;;;;5.84;100.00;97999.84;137074;1276;23048;-75
2024/02/09 11:27:49;;;;;;;;;;;;;;;5.96;100.00;97993.79;137073;1276;22284;-74
2024/02/09 11:30:55;;;;;;;;;;;;;;;6.07;100.00;97988.81;137110;1276;22461;-74
2024/02/09 11:33:57;;;;;;;;;;;;;;;6.18;100.00;97986.16;137124;1276;22291;-74
2024/02/09 11:37:03;;;;;;;;;;;;;;;6.22;100.00;97982.05;137085;1276;22440;-73
2024/02/09 11:40:06;;;;;;;;;;;;;;;6.24;100.00;97974.33;137118;1276;22301;-73
2024/02/09 11:43:29;;;;;;;;;;;;;;;6.32;100.00;97974.83;136731;1279;22460;-74
2024/02/09 11:46:35;;;;;;;;;;;;;;;6.41;100.00;97969.13;136754;1279;22515;-75
2024/02/09 11:49:38;;;;;;;;;;;;;;;6.51;100.00;97966.00;136723;1279;23305;-74
2024/02/09 11:52:39;;;;;;;;;;;;;;;6.64;100.00;97958.45;136718;1279;22470;-75
2024/02/09 11:55:43;;;;;;;;;;;;;;;6.79;100.00;97949.79;136723;1279;22451;-75
2024/02/09 11:58:44;;;;;;;;;;;;;;;6.92;100.00;97953.09;136722;1279;22505;-72
2024/02/09 12:01:47;;;;;;;;;;;;;;;7.01;100.00;97959.70;136718;1279;22390;-73
2024/02/09 12:04:51;;;;;;;;;;;;;;;7.10;100.00;97952.23;136714;1276;22452;-73
2024/02/09 12:07:53;;;;;;;;;;;;;;;7.21;100.00;97950.33;136732;1279;22436;-76
2024/02/09 12:10:54;;;;;;;;;;;;;;;7.30;100.00;97939.61;136729;1278;22487;-73
2024/02/09 12:14:00;;;;;;;;;;;;;;;7.41;100.00;97941.62;136861;1276;22440;-77
2024/02/09 12:17:01;;;;;;;;;;;;;;;7.51;100.00;97940.95;136996;1276;23097;-73
2024/02/09 12:20:09;;;;;;;;;;;;;;;7.59;100.00;97936.38;137104;1276;22388;-75
2024/02/09 12:23:10;;;;;;;;;;;;;;;7.71;100.00;97927.41;137091;1276;22308;-74
2024/02/09 12:26:14;;;;;;;;;;;;;;;7.80;100.00;97929.61;137096;1276;22572;-75
2024/02/09 12:29:15;;;;;;;;;;;;;;;7.87;100.00;97932.42;137098;1276;23023;-74
2024/02/09 12:32:18;;;;;;;;;;;;;;;7.94;100.00;97935.11;137090;1276;23007;-73
2024/02/09 12:35:28;;;;;;;;;;;;;;;7.97;100.00;97936.16;137114;1271;23121;-74
2024/02/09 12:38:31;;;;;;;;;;;;;;;7.99;100.00;97937.09;137095;1276;22384;-73
2024/02/09 12:41:32;;;;;;;;;;;;;;;8.01;100.00;97939.54;137069;1273;22420;-76
2024/02/09 12:44:37;;;;;;;;;;;;;;;8.04;100.00;97938.59;137157;1276;23580;-77
2024/02/09 12:47:44;;;;;;;;;;;;;;;8.09;100.00;97931.77;136946;1276;23106;-75
2024/02/09 12:50:45;;;;;;;;;;;;;;;8.16;100.00;97925.59;137143;1276;22547;-74
2024/02/09 12:53:46;;;;;;;;;;;;;;;8.21;100.00;97920.34;137103;1276;22384;-73
2024/02/09 12:56:48;;;;;;;;;;;;;;;8.26;100.00;97916.44;137146;1276;22399;-76
2024/02/09 12:59:49;;;;;;;;;;;;;;;8.27;100.00;97912.45;136975;1276;23458;-75
2024/02/09 13:02:49;;;;;;;;;;;;;;;8.29;100.00;97911.10;137091;1276;22395;-74
2024/02/09 13:05:50;;;;;;;;;;;;;;;8.32;100.00;97911.22;137129;1276;23198;-72
2024/02/09 13:08:54;;;;;;;;;;;;;;;8.34;100.00;97907.64;137118;1276;23184;-73
2024/02/09 13:11:58;;;;;;;;;;;;;;;8.37;100.00;97905.52;137151;1272;22392;-74
2024/02/09 13:15:07;;;;;;;;;;;;;;;8.40;100.00;97906.11;137007;1276;22293;-73
2024/02/09 13:18:08;;;;;;;;;;;;;;;8.47;100.00;97912.77;136889;1276;22376;-74
2024/02/09 13:21:09;;;;;;;;;;;;;;;8.51;100.00;97906.86;137149;1276;23229;-73
2024/02/09 13:24:10;;;;;;;;;;;;;;;8.55;100.00;97897.79;137141;1276;22392;-76
2024/02/09 13:27:16;;;;;;;;;;;;;;;8.60;100.00;97900.09;137145;1276;22387;-73
2024/02/09 13:30:17;;;;;;;;;;;;;;;8.62;100.00;97899.64;137127;1276;23108;-75
2024/02/09 13:33:24;;;;;;;;;;;;;;;8.66;100.00;97895.55;136966;1276;22531;-74
2024/02/09 13:36:27;;;;;;;;;;;;;;;8.73;100.00;97895.38;137125;1274;22349;-73
2024/02/09 13:39:33;;;;;;;;;;;;;;;8.79;100.00;97890.55;137116;1276;22937;-72
2024/02/09 13:42:47;;;;;;;;;;;;;;;8.86;100.00;97893.45;137088;1273;22378;-73
2024/02/09 13:45:47;;;;;;;;;;;;;;;8.90;100.00;97893.02;137130;1276;22277;-74
2024/02/09 13:48:49;;;;;;;;;;;;;;;8.95;100.00;97895.33;137125;1276;23288;-73
2024/02/09 13:51:53;;;;;;;;;;;;;;;8.97;100.00;97893.27;137131;1276;23433;-75
2024/02/09 13:54:55;;;;;;;;;;;;;;;9.01;100.00;97892.58;137164;1276;22410;-72
2024/02/09 13:57:56;;;;;;;;;;;;;;;9.04;100.00;97895.25;137132;1276;22371;-72
2024/02/09 14:00:56;;;;;;;;;;;;;;;9.04;100.00;97895.13;137146;1276;22399;-75
2024/02/09 14:03:59;;;;;;;;;;;;;;;9.03;100.00;97894.15;137093;1276;22565;-73
2024/02/09 14:07:08;;;;;;;;;;;;;;;9.03;100.00;97894.31;137162;1273;22359;-73
2024/02/09 14:10:12;;;;;;;;;;;;;;;8.99;100.00;97895.63;137120;1276;22277;-74
2024/02/09 14:13:13;;;;;;;;;;;;;;;8.97;100.00;97897.87;137157;1273;22430;-73
2024/02/09 14:16:27;;;;;;;;;;;;;;;8.96;100.00;97899.27;137194;1276;22401;-78
2024/02/09 14:19:40;;;;;;;;;;;;;;;8.94;100.00;97903.91;137177;1272;22353;-72
2024/02/09 14:22:41;;;;;;;;;;;;;;;8.91;100.00;97901.69;137152;1276;22307;-73
2024/02/09 14:25:44;;;;;;;;;;;;;;;8.86;100.00;97899.23;137160;1276;23609;-75
2024/02/09 14:28:44;;;;;;;;;;;;;;;8.73;100.00;97896.35;137129;1276;22452;-74
2024/02/09 14:31:48;;;;;;;;;;;;;;;8.69;100.00;97898.71;137159;1271;22403;-73
2024/02/09 14:34:49;;;;;;;;;;;;;;;8.69;100.00;97896.77;137171;1276;22386;-73
2024/02/09 14:37:50;;;;;;;;;;;;;;;8.71;100.00;97899.33;137142;1276;22419;-77
2024/02/09 14:40:55;;;;;;;;;;;;;;;8.72;100.00;97901.15;137160;1276;22438;-74
2024/02/09 14:43:58;;;;;;;;;;;;;;;8.75;100.00;97899.25;137197;1276;22386;-72
2024/02/09 14:46:59;;;;;;;;;;;;;;;8.77;100.00;97903.49;137157;1276;22361;-72
2024/02/09 14:50:02;;;;;;;;;;;;;;;8.77;100.00;97905.20;137183;1276;22403;-72
2024/02/09 14:53:03;;;;;;;;;;;;;;;8.81;100.00;97897.05;137144;1276;22371;-72
2024/02/09 14:56:04;;;;;;;;;;;;;;;8.84;100.00;97899.69;137146;1276;23089;-71
2024/02/09 14:59:05;;;;;;;;;;;;;;;8.81;100.00;97900.38;136990;1276;23306;-70
2024/02/09 15:02:10;;;;;;;;;;;;;;;8.80;100.00;97906.21;137142;1276;22368;-72
2024/02/09 15:05:13;;;;;;;;;;;;;;;8.82;100.00;97905.02;137169;1276;22410;-72
2024/02/09 15:08:17;;;;;;;;;;;;;;;8.86;100.00;97899.42;137150;1276;22274;-73
2024/02/09 15:11:25;;;;;;;;;;;;;;;8.87;100.00;97894.83;136960;1276;22390;-74
2024/02/09 15:14:48;;;;;;;;;;;;;;;8.88;100.00;97898.84;137139;1269;22453;-75
2024/02/09 15:18:00;;;;;;;;;;;;;;;8.90;100.00;97896.20;137114;1275;22542;-74
2024/02/09 15:21:22;;;;;;;;;;;;;;;8.92;100.00;97899.98;137127;1276;22353;-73
2024/02/09 15:24:25;;;;;;;;;;;;;;;8.94;100.00;97907.34;137161;1276;23481;-73
2024/02/09 15:27:26;;;;;;;;;;;;;;;8.96;100.00;97905.90;137137;1273;22388;-74
2024/02/09 15:30:26;;;;;;;;;;;;;;;8.97;100.00;97907.48;137137;1269;22460;-71
2024/02/09 15:33:27;;;;;;;;;;;;;;;8.98;100.00;97904.39;137145;1276;22449;-70
2024/02/09 15:36:30;;;;;;;;;;;;;;;9.03;100.00;97908.43;137166;1276;22427;-71
2024/02/09 15:39:31;;;;;;;;;;;;;;;9.04;100.00;97906.31;136960;1276;22408;-71
2024/02/09 15:42:32;;;;;;;;;;;;;;;9.05;100.00;97906.71;137169;1276;22393;-70
2024/02/09 15:45:35;;;;;;;;;;;;;;;9.04;100.00;97911.77;137151;1277;22388;-70
2024/02/09 15:48:36;;;;;;;;;;;;;;;9.03;100.00;97912.67;137141;1276;22395;-70
2024/02/09 15:51:39;;;;;;;;;;;;;;;8.99;100.00;97916.63;136818;1276;22463;-71
2024/02/09 15:54:43;;;;;;;;;;;;;;;8.98;100.00;97917.13;137148;1277;22401;-70
2024/02/09 15:57:46;;;;;;;;;;;;;;;8.96;100.00;97920.88;137139;1276;22379;-71
2024/02/09 16:00:49;;;;;;;;;;;;;;;8.96;100.00;97922.66;137137;1274;22413;-72
2024/02/09 16:03:54;;;;;;;;;;;;;;;8.97;100.00;97924.65;137117;1277;22400;-71
2024/02/09 16:06:57;;;;;;;;;;;;;;;8.99;100.00;97921.92;136920;1276;22379;-71
2024/02/09 16:10:00;;;;;;;;;;;;;;;9.01;100.00;97916.98;137096;1277;23540;-72
2024/02/09 16:13:01;;;;;;;;;;;;;;;9.02;100.00;97918.16;137118;1277;22397;-70
2024/02/09 16:16:04;;;;;;;;;;;;;;;9.05;100.00;97925.68;136947;1277;23269;-71
2024/02/09 16:19:08;;;;;;;;;;;;;;;9.09;100.00;97927.17;137101;1277;22379;-73
2024/02/09 16:22:09;;;;;;;;;;;;;;;9.12;100.00;97926.02;137150;1276;22398;-71
2024/02/09 16:25:12;;;;;;;;;;;;;;;9.17;100.00;97927.30;137136;1276;22415;-74
2024/02/09 16:28:12;;;;;;;;;;;;;;;9.21;100.00;97926.17;136927;1276;22377;-72
2024/02/09 16:31:14;;;;;;;;;;;;;;;9.22;100.00;97923.03;137128;1276;22446;-74
2024/02/09 16:34:14;;;;;;;;;;;;;;;9.24;100.00;97923.69;136927;1276;22392;-72
2024/02/09 16:37:15;;;;;;;;;;;;;;;9.24;100.00;97919.37;136933;1276;22406;-73
2024/02/09 16:40:17;;;;;;;;;;;;;;;9.25;100.00;97921.45;137094;1274;22394;-73
2024/02/09 16:43:28;;;;;;;;;;;;;;;9.25;100.00;97929.29;137110;1276;22402;-72
2024/02/09 16:46:28;;;;;;;;;;;;;;;9.25;100.00;97925.27;137112;1277;22846;-72
2024/02/09 16:49:32;;;;;;;;;;;;;;;9.25;100.00;97924.25;137077;1277;22383;-73
2024/02/09 16:52:37;;;;;;;;;;;;;;;9.24;100.00;97925.71;136957;1277;22385;-73
2024/02/09 16:55:41;;;;;;;;;;;;;;;9.23;100.00;97926.20;137124;1276;23051;-75
2024/02/09 16:58:45;;;;;;;;;;;;;;;9.23;100.00;97922.57;137104;1276;22973;-73
2024/02/09 17:01:45;;;;;;;;;;;;;;;9.21;100.00;97924.39;137103;1276;23063;-73
2024/02/09 17:05:04;;;;;;;;;;;;;;;9.19;100.00;97920.09;137143;1277;22464;-74
2024/02/09 17:08:13;;;;;;;;;;;;;;;9.17;100.00;97920.12;137158;1277;22334;-74
2024/02/09 17:11:32;;;;;;;;;;;;;;;9.16;100.00;97921.52;136956;1277;22305;-74
2024/02/09 17:14:33;;;;;;;;;;;;;;;9.14;100.00;97919.37;137176;1273;22280;-75
2024/02/09 17:17:43;;;;;;;;;;;;;;;9.14;100.00;97921.64;137084;1277;22387;-74
2024/02/09 17:20:45;;;;;;;;;;;;;;;9.15;100.00;97924.48;137157;1276;22375;-71
2024/02/09 17:24:05;;;;;;;;;;;;;;;9.18;100.00;97926.45;136986;1276;22418;-73
2024/02/09 17:27:10;;;;;;;;;;;;;;;9.20;100.00;97927.52;137115;1276;22349;-73
2024/02/09 17:30:13;;;;;;;;;;;;;;;9.22;100.00;97925.80;136963;1276;22375;-72
2024/02/09 17:33:14;;;;;;;;;;;;;;;9.23;100.00;97919.16;137100;1276;22406;-73
2024/02/09 17:36:23;;;;;;;;;;;;;;;9.25;100.00;97919.44;137124;1276;22464;-71
2024/02/09 17:39:26;;;;;;;;;;;;;;;9.26;100.00;97917.39;137120;1276;23381;-73
2024/02/09 17:42:29;;;;;;;;;;;;;;;9.27;100.00;97917.55;137116;1275;23304;-73
2024/02/09 17:45:32;;;;;;;;;;;;;;;9.28;100.00;97922.55;136953;1276;22406;-72